createdAt,value
2023-02-18T00:01:13.571Z,17.37
2023-02-18T00:04:16.829Z,15.98
2023-02-18T00:07:20.018Z,12.25
2023-02-18T00:10:23.290Z,15.00
2023-02-18T00:13:26.286Z,10.75
2023-02-18T00:16:31.458Z,13.23
2023-02-18T00:19:34.670Z,10.15
2023-02-18T00:22:38.795Z,7.87
2023-02-18T00:25:41.704Z,9.43
2023-02-18T00:28:45.632Z,7.05
2023-02-18T00:31:48.913Z,8.30
2023-02-18T00:34:52.541Z,6.82
2023-02-18T00:37:55.433Z,8.63
2023-02-18T00:40:59.276Z,8.10
2023-02-18T00:44:02.515Z,4.30
2023-02-18T00:47:05.793Z,5.07
2023-02-18T00:50:10.247Z,4.70
2023-02-18T00:53:13.956Z,4.22
2023-02-18T00:56:17.027Z,5.45
2023-02-18T00:59:20.646Z,2.42
2023-02-18T01:02:24.902Z,2.05
2023-02-18T01:05:30.301Z,2.28
2023-02-18T01:08:33.943Z,4.28
2023-02-18T01:11:37.850Z,2.28
2023-02-18T01:14:41.551Z,2.97
2023-02-18T01:17:45.323Z,3.78
2023-02-18T01:20:48.379Z,1.40
2023-02-18T01:23:51.666Z,1.65
2023-02-18T01:26:54.646Z,2.35
2023-02-18T01:29:58.096Z,1.40
2023-02-18T01:33:01.286Z,2.10
2023-02-18T01:36:06.092Z,2.05
2023-02-18T01:39:09.374Z,2.70
2023-02-18T01:42:24.305Z,1.30
2023-02-18T01:45:39.336Z,4.40
2023-02-18T01:48:46.891Z,2.40
2023-02-18T01:51:54.946Z,1.50
2023-02-18T01:55:00.579Z,1.23
2023-02-18T01:58:04.257Z,0.80
2023-02-18T02:01:09.569Z,0.98
2023-02-18T02:04:14.236Z,2.05
2023-02-18T02:07:20.356Z,3.62
2023-02-18T02:10:31.019Z,0.85
2023-02-18T02:13:54.957Z,1.30
2023-02-18T02:17:04.783Z,1.40
2023-02-18T02:20:42.416Z,4.07
2023-02-18T02:24:19.354Z,2.65
2023-02-18T02:27:26.271Z,1.20
2023-02-18T02:30:55.650Z,1.30
2023-02-18T02:34:21.917Z,2.20
2023-02-18T02:37:30.186Z,3.75
2023-02-18T02:40:48.484Z,1.80
2023-02-18T02:44:13.514Z,1.40
2023-02-18T02:47:32.885Z,1.27
2023-02-18T02:50:38.249Z,2.25
2023-02-18T02:53:43.073Z,1.30
2023-02-18T02:56:46.194Z,1.40
2023-02-18T02:59:54.028Z,1.12
2023-02-18T03:03:00.208Z,1.58
2023-02-18T03:06:17.603Z,4.18
2023-02-18T03:09:59.689Z,1.80
2023-02-18T03:13:33.855Z,1.65
2023-02-18T03:16:46.354Z,1.12
2023-02-18T03:19:55.567Z,1.02
2023-02-18T03:23:00.166Z,0.95
2023-02-18T03:26:04.825Z,1.05
2023-02-18T03:29:08.106Z,0.70
2023-02-18T03:32:13.646Z,1.90
2023-02-18T03:35:18.598Z,4.03
2023-02-18T03:38:33.987Z,1.05
2023-02-18T03:41:37.408Z,2.70
2023-02-18T03:44:40.731Z,1.85
2023-02-18T03:47:43.755Z,2.62
2023-02-18T03:50:46.972Z,1.20
2023-02-18T03:53:50.191Z,1.77
2023-02-18T03:56:53.458Z,0.88
2023-02-18T03:59:56.370Z,1.85
2023-02-18T04:02:59.661Z,1.10
2023-02-18T04:06:03.074Z,1.40
2023-02-18T04:09:09.221Z,1.50
2023-02-18T04:12:12.870Z,4.78
2023-02-18T04:15:16.200Z,1.00
2023-02-18T04:18:22.460Z,1.42
2023-02-18T04:21:25.536Z,0.95
2023-02-18T04:24:28.830Z,3.03
2023-02-18T04:27:31.691Z,1.00
2023-02-18T04:30:35.207Z,1.20
2023-02-18T04:33:38.422Z,0.85
2023-02-18T04:36:41.798Z,2.08
2023-02-18T04:39:44.784Z,1.02
2023-02-18T04:42:48.010Z,0.70
2023-02-18T04:45:50.990Z,0.80
2023-02-18T04:48:54.258Z,0.55
2023-02-18T04:51:57.316Z,0.68
2023-02-18T04:55:00.282Z,1.02
2023-02-18T04:58:04.045Z,1.90
2023-02-18T05:01:07.106Z,0.62
2023-02-18T05:04:10.611Z,1.85
2023-02-18T05:07:13.903Z,0.68
2023-02-18T05:10:18.106Z,0.77
2023-02-18T05:13:23.011Z,0.80
2023-02-18T05:16:26.392Z,0.82
2023-02-18T05:19:29.747Z,0.70
2023-02-18T05:22:32.700Z,0.80
2023-02-18T05:25:35.959Z,0.62
2023-02-18T05:28:38.963Z,0.75
2023-02-18T05:31:42.495Z,0.70
2023-02-18T05:34:45.687Z,1.30
2023-02-18T05:37:48.886Z,2.03
2023-02-18T05:40:52.278Z,1.17
2023-02-18T05:44:14.252Z,3.33
2023-02-18T05:47:17.356Z,1.45
2023-02-18T05:50:20.689Z,2.37
2023-02-18T05:53:23.673Z,1.60
2023-02-18T05:56:26.903Z,2.90
2023-02-18T05:59:30.173Z,1.52
2023-02-18T06:02:33.849Z,1.58
2023-02-18T06:05:37.174Z,2.08
2023-02-18T06:08:40.312Z,1.67
2023-02-18T06:11:44.166Z,1.17
2023-02-18T06:14:47.333Z,1.73
2023-02-18T06:17:50.661Z,4.68
2023-02-18T06:20:53.689Z,1.20
2023-02-18T06:23:57.018Z,3.67
2023-02-18T06:27:00.020Z,1.73
2023-02-18T06:30:03.438Z,1.12
2023-02-18T06:33:06.489Z,1.40
2023-02-18T06:36:12.203Z,1.10
2023-02-18T06:39:15.449Z,2.40
2023-02-18T06:42:18.703Z,1.45
2023-02-18T06:45:21.659Z,0.68
2023-02-18T06:48:25.203Z,1.98
2023-02-18T06:51:28.147Z,0.75
2023-02-18T06:54:32.057Z,1.00
2023-02-18T06:57:35.219Z,1.85
2023-02-18T07:00:38.926Z,2.08
2023-02-18T07:03:42.111Z,3.60
2023-02-18T07:06:45.518Z,2.00
2023-02-18T07:09:49.601Z,1.62
2023-02-18T07:12:52.841Z,1.90
2023-02-18T07:15:55.920Z,1.20
2023-02-18T07:18:59.440Z,1.17
2023-02-18T07:22:02.407Z,1.75
2023-02-18T07:25:06.114Z,1.30
2023-02-18T07:28:09.104Z,1.65
2023-02-18T07:31:13.109Z,1.70
2023-02-18T07:34:17.312Z,2.53
2023-02-18T07:37:21.026Z,2.37
2023-02-18T07:40:24.305Z,1.40
2023-02-18T07:43:27.539Z,2.28
2023-02-18T07:46:30.692Z,1.40
2023-02-18T07:49:35.722Z,1.40
2023-02-18T07:52:39.718Z,1.40
2023-02-18T07:55:51.899Z,0.90
2023-02-18T07:58:55.484Z,0.93
2023-02-18T08:01:58.822Z,1.17
2023-02-18T08:05:02.713Z,0.88
2023-02-18T08:08:05.589Z,1.42
2023-02-18T08:11:18.794Z,1.75
2023-02-18T08:14:23.619Z,2.40
2023-02-18T08:17:27.033Z,0.82
2023-02-18T08:20:30.855Z,0.82
2023-02-18T08:23:34.399Z,0.88
2023-02-18T08:26:37.363Z,1.37
2023-02-18T08:29:40.773Z,1.30
2023-02-18T08:32:43.511Z,1.98
2023-02-18T08:35:47.955Z,1.73
2023-02-18T08:38:51.158Z,0.88
2023-02-18T08:41:54.532Z,1.23
2023-02-18T08:44:57.721Z,0.98
2023-02-18T08:48:17.372Z,0.50
2023-02-18T08:51:23.196Z,0.70
2023-02-18T08:54:26.595Z,0.93
2023-02-18T08:57:29.639Z,1.15
2023-02-18T09:00:33.407Z,0.90
2023-02-18T09:03:36.475Z,0.60
2023-02-18T09:06:40.055Z,0.70
2023-02-18T09:09:43.409Z,1.08
2023-02-18T09:12:46.819Z,0.68
2023-02-18T09:16:06.024Z,0.95
2023-02-18T09:19:09.629Z,1.55
2023-02-18T09:22:13.215Z,0.50
2023-02-18T09:25:16.502Z,0.50
2023-02-18T09:28:19.555Z,0.90
2023-02-18T09:31:25.946Z,0.82
2023-02-18T09:34:29.404Z,1.00
2023-02-18T09:37:32.648Z,0.52
2023-02-18T09:40:37.349Z,1.00
2023-02-18T09:43:45.000Z,0.57
2023-02-18T09:47:11.033Z,1.15
2023-02-18T09:50:27.493Z,1.02
2023-02-18T09:53:30.809Z,0.80
2023-02-18T09:56:38.582Z,0.80
2023-02-18T09:59:44.429Z,0.85
2023-02-18T10:06:08.311Z,1.45
2023-02-18T10:09:23.510Z,0.73
2023-02-18T10:15:32.037Z,1.15
2023-02-18T10:18:42.826Z,0.55
2023-02-18T10:21:46.403Z,0.77
2023-02-18T10:24:55.140Z,0.60
2023-02-18T10:27:59.141Z,1.08
2023-02-18T10:31:08.632Z,1.27
2023-02-18T10:34:14.892Z,0.62
2023-02-18T10:37:27.176Z,1.75
2023-02-18T10:40:43.481Z,0.55
2023-02-18T10:43:46.755Z,1.10
2023-02-18T10:47:24.964Z,1.25
2023-02-18T10:50:34.636Z,1.20
2023-02-18T10:53:43.485Z,0.90
2023-02-18T10:56:51.963Z,0.95
2023-02-18T11:00:13.181Z,0.80
2023-02-18T11:03:21.090Z,0.70
2023-02-18T11:06:40.923Z,0.70
2023-02-18T11:09:52.516Z,1.35
2023-02-18T11:13:02.546Z,0.70
2023-02-18T11:16:06.685Z,0.80
2023-02-18T11:19:32.937Z,2.40
2023-02-18T11:22:41.596Z,1.05
2023-02-18T11:26:12.156Z,1.42
2023-02-18T11:29:22.261Z,1.10
2023-02-18T11:32:28.229Z,2.65
2023-02-18T11:35:32.899Z,1.27
2023-02-18T11:38:50.709Z,2.40
2023-02-18T11:42:02.263Z,1.35
2023-02-18T11:45:08.160Z,1.20
2023-02-18T11:48:18.923Z,1.70
2023-02-18T11:51:26.690Z,2.15
2023-02-18T11:54:31.704Z,1.73
2023-02-18T11:57:38.493Z,1.85
2023-02-18T12:00:43.115Z,1.67
2023-02-18T12:03:52.972Z,1.65
2023-02-18T12:07:04.964Z,1.65
2023-02-18T12:10:23.300Z,3.33
2023-02-18T12:13:34.201Z,4.62
2023-02-18T12:17:08.865Z,3.30
2023-02-18T12:20:33.010Z,3.47
2023-02-18T12:23:49.419Z,1.87
2023-02-18T12:27:15.339Z,2.65
2023-02-18T12:30:43.840Z,2.45
2023-02-18T12:33:47.216Z,2.53
2023-02-18T12:36:56.676Z,2.92
2023-02-18T12:40:21.652Z,2.25
2023-02-18T12:43:38.405Z,2.50
2023-02-18T12:46:49.875Z,2.58
2023-02-18T12:50:00.774Z,3.80
2023-02-18T12:53:19.023Z,4.05
2023-02-18T12:56:48.854Z,1.87
2023-02-18T13:00:02.658Z,1.52
2023-02-18T13:03:21.175Z,0.90
2023-02-18T13:06:47.378Z,1.98
2023-02-18T13:10:19.315Z,1.15
2023-02-18T13:13:38.079Z,0.65
2023-02-18T13:16:44.905Z,1.42
2023-02-18T13:20:21.296Z,2.83
2023-02-18T13:23:47.781Z,0.70
2023-02-18T13:26:51.805Z,1.35
2023-02-18T13:30:19.468Z,2.35
2023-02-18T13:33:36.226Z,0.65
2023-02-18T13:37:04.561Z,2.92
2023-02-18T13:40:17.622Z,0.90
2023-02-18T13:43:33.370Z,2.75
2023-02-18T13:46:57.300Z,2.40
2023-02-18T13:50:16.176Z,1.23
2023-02-18T13:53:24.360Z,1.95
2023-02-18T13:56:30.366Z,1.20
2023-02-18T13:59:47.393Z,1.33
2023-02-18T14:03:03.332Z,0.75
2023-02-18T14:06:16.160Z,0.82
2023-02-18T14:09:25.893Z,1.08
2023-02-18T14:12:30.952Z,2.80
2023-02-18T14:15:34.265Z,0.95
2023-02-18T14:18:41.292Z,0.82
2023-02-18T14:21:44.727Z,0.95
2023-02-18T14:24:50.179Z,0.77
2023-02-18T14:27:55.196Z,0.60
2023-02-18T14:30:59.413Z,1.15
2023-02-18T14:34:24.391Z,1.95
2023-02-18T14:37:35.133Z,1.95
2023-02-18T14:41:05.384Z,0.90
2023-02-18T14:44:41.209Z,2.78
2023-02-18T14:47:50.917Z,1.05
2023-02-18T14:50:57.109Z,3.58
2023-02-18T14:54:15.096Z,1.02
2023-02-18T15:00:42.893Z,1.65
2023-02-18T15:03:48.847Z,1.50
2023-02-18T15:07:00.757Z,1.87
2023-02-18T15:10:20.077Z,1.55
2023-02-18T15:13:44.054Z,1.00
2023-02-18T15:16:48.088Z,1.20
2023-02-18T15:19:57.256Z,2.87
2023-02-18T15:23:01.905Z,1.92
2023-02-18T15:26:07.153Z,1.25
2023-02-18T15:29:16.679Z,2.28
2023-02-18T15:32:27.695Z,1.62
2023-02-18T15:35:34.315Z,2.53
2023-02-18T15:38:41.700Z,1.75
2023-02-18T15:41:45.087Z,2.47
2023-02-18T15:44:53.224Z,3.40
2023-02-18T15:47:58.432Z,3.03
2023-02-18T15:51:17.046Z,5.25
2023-02-18T15:54:23.033Z,2.75
2023-02-18T15:57:29.296Z,1.70
2023-02-18T16:00:37.911Z,2.35
2023-02-18T16:03:45.586Z,3.03
2023-02-18T16:06:54.706Z,4.18
2023-02-18T16:10:09.313Z,5.25
2023-02-18T16:13:17.923Z,5.18
2023-02-18T16:16:39.678Z,3.95
2023-02-18T16:20:03.296Z,1.98
2023-02-18T16:23:14.981Z,2.10
2023-02-18T16:26:21.404Z,5.95
2023-02-18T16:29:28.213Z,6.53
2023-02-18T16:32:32.083Z,4.47
2023-02-18T16:35:49.157Z,3.67
2023-02-18T16:38:53.626Z,3.15
2023-02-18T16:41:58.830Z,3.72
2023-02-18T16:45:02.697Z,4.03
2023-02-18T16:48:07.517Z,4.87
2023-02-18T16:51:17.392Z,7.50
2023-02-18T16:54:22.727Z,10.95
2023-02-18T17:00:30.420Z,8.10
2023-02-18T17:03:34.673Z,7.90
2023-02-18T17:06:38.677Z,10.77
2023-02-18T17:09:42.069Z,6.30
2023-02-18T17:12:45.630Z,5.80
2023-02-18T17:15:51.697Z,8.98
2023-02-18T17:18:56.714Z,7.87
2023-02-18T17:22:00.375Z,9.82
2023-02-18T17:25:14.400Z,14.25
2023-02-18T17:28:21.960Z,14.07
2023-02-18T17:31:28.896Z,11.48
2023-02-18T17:34:32.818Z,12.45
2023-02-18T17:37:41.076Z,19.57
2023-02-18T17:40:45.076Z,27.90
2023-02-18T17:43:53.378Z,20.83
2023-02-18T17:47:01.125Z,22.58
2023-02-18T17:50:06.575Z,25.83
2023-02-18T17:56:22.994Z,24.48
2023-02-18T17:59:30.940Z,20.62
2023-02-18T18:02:35.766Z,22.05
2023-02-18T18:05:41.161Z,25.90
2023-02-18T18:08:47.033Z,22.75
2023-02-18T18:11:53.361Z,23.55
2023-02-18T18:14:58.808Z,27.33
2023-02-18T18:18:08.902Z,30.15
2023-02-18T18:21:35.243Z,31.50
2023-02-18T18:24:47.029Z,29.48
2023-02-18T18:27:52.592Z,30.92
2023-02-18T18:31:00.044Z,26.67
2023-02-18T18:34:05.786Z,35.63
2023-02-18T18:37:11.010Z,37.05
2023-02-18T18:40:16.052Z,34.00
2023-02-18T18:43:27.147Z,37.97
2023-02-18T18:46:31.775Z,33.75
2023-02-18T18:49:40.646Z,36.10
2023-02-18T18:52:45.987Z,39.47
2023-02-18T18:55:52.878Z,38.28
2023-02-18T18:58:57.515Z,36.35
2023-02-18T19:05:07.439Z,42.72
2023-02-18T19:08:13.453Z,42.15
2023-02-18T19:11:19.233Z,42.60
2023-02-18T19:14:24.090Z,39.63
2023-02-18T19:17:29.202Z,45.55
2023-02-18T19:20:36.542Z,43.45
2023-02-18T19:23:41.536Z,43.38
2023-02-18T19:26:46.809Z,40.95
2023-02-18T19:29:54.857Z,48.75
2023-02-18T19:33:01.060Z,47.60
2023-02-18T19:36:10.817Z,47.30
2023-02-18T19:39:20.694Z,45.65
2023-02-18T19:42:24.678Z,44.28
2023-02-18T19:45:29.952Z,45.12
2023-02-18T19:51:40.087Z,41.58
2023-02-18T19:54:44.253Z,44.45
2023-02-18T20:00:53.497Z,45.22
2023-02-18T20:03:59.711Z,45.75
2023-02-18T20:07:04.576Z,38.03
2023-02-18T20:13:17.255Z,38.90
2023-02-18T20:16:22.320Z,50.55
2023-02-18T20:19:27.191Z,46.37
2023-02-18T20:22:33.700Z,42.20
2023-02-18T20:25:39.877Z,43.45
2023-02-18T20:28:50.981Z,40.92
2023-02-18T20:31:56.668Z,44.80
2023-02-18T20:35:01.119Z,44.08
2023-02-18T20:38:05.496Z,40.70
2023-02-18T20:41:19.586Z,42.95
2023-02-18T20:44:26.514Z,38.83
2023-02-18T20:47:40.562Z,44.80
2023-02-18T20:50:45.070Z,39.10
2023-02-18T20:53:51.997Z,37.30
2023-02-18T20:56:56.292Z,38.35
2023-02-18T21:00:01.515Z,36.13
2023-02-18T21:03:09.925Z,36.95
2023-02-18T21:06:17.350Z,36.30
2023-02-18T21:09:28.602Z,36.08
2023-02-18T21:12:34.705Z,32.75
2023-02-18T21:15:38.944Z,33.95
2023-02-18T21:18:44.912Z,32.75
2023-02-18T21:21:48.892Z,31.27
2023-02-18T21:24:54.088Z,31.80
2023-02-18T21:27:58.368Z,31.75
2023-02-18T21:31:02.894Z,30.80
2023-02-18T21:34:08.384Z,30.42
2023-02-18T21:37:13.073Z,30.90
2023-02-18T21:40:18.159Z,28.87
2023-02-18T21:43:24.576Z,32.22
2023-02-18T21:46:31.031Z,23.67
2023-02-18T21:49:35.119Z,25.98
2023-02-18T21:52:47.821Z,25.83
2023-02-18T21:56:03.423Z,29.87
2023-02-18T21:59:07.518Z,26.40
2023-02-18T22:02:16.854Z,25.35
2023-02-18T22:05:25.779Z,25.35
2023-02-18T22:08:28.879Z,24.48
2023-02-18T22:11:34.516Z,26.03
2023-02-18T22:14:38.878Z,23.52
2023-02-18T22:17:42.319Z,22.45
2023-02-18T22:20:46.348Z,18.70
2023-02-18T22:23:49.585Z,18.80
2023-02-18T22:26:52.763Z,15.38
2023-02-18T22:29:56.686Z,14.02
2023-02-18T22:32:59.717Z,14.75
2023-02-18T22:36:05.145Z,16.75
2023-02-18T22:39:08.674Z,10.90
2023-02-18T22:42:11.987Z,13.65
2023-02-18T22:45:15.136Z,12.73
2023-02-18T22:48:19.989Z,13.20
2023-02-18T22:51:28.763Z,9.98
2023-02-18T22:54:32.052Z,13.05
2023-02-18T22:57:35.268Z,12.37
2023-02-18T23:00:38.460Z,10.77
2023-02-18T23:03:41.399Z,11.00
2023-02-18T23:06:45.980Z,9.10
2023-02-18T23:09:49.574Z,11.95
2023-02-18T23:12:54.737Z,9.38
2023-02-18T23:16:00.529Z,8.60
2023-02-18T23:19:03.790Z,6.55
2023-02-18T23:22:08.886Z,4.78
2023-02-18T23:25:13.098Z,7.80
2023-02-18T23:28:16.121Z,4.25
2023-02-18T23:31:25.435Z,4.22
2023-02-18T23:34:28.964Z,4.05
2023-02-18T23:37:50.671Z,1.60
2023-02-18T23:40:53.648Z,1.20
2023-02-18T23:43:57.547Z,1.00
2023-02-18T23:47:00.593Z,1.10
2023-02-18T23:50:03.958Z,1.92
2023-02-18T23:53:08.146Z,1.42
2023-02-18T23:56:25.866Z,1.00
2023-02-18T23:59:28.901Z,1.30
